Lancaster and Morecambe, United Kingdom

10:56 PM BST on September 25, 2016 (GMT +0100)
| | Change Station

Elev -9999 ft 0.00 °N, 0.00 °E | Updated

Partly Cloudy
Partly Cloudy
55 °F
Feels Like 55 °F
N
13
Wind Variable Wind from WSW
Gusts mph

Today
High -- | Low -- °F
--% Chance of Precip.
Yesterday
High -- | Low -- °F
Precip. -- in
Pressure 29.98 in
Visibility 6.2 miles
Clouds Scattered Clouds 2500 ft
Dew Point 47 °F
Humidity 74%
Rainfall --
Snow Depth Not available.
7:03 AM 7:01 PM
Waning Crescent, 24% visible
METAR EGNS 252150Z 25013KT 220V280 9999 SCT025 13/07 Q1015
Pressure 29.98 in
Visibility 6.2 miles
Clouds Scattered Clouds 2500 ft
Dew Point 47 °F
Humidity 74%
Rainfall --
Snow Depth Not available.
7:03 AM 7:01 PM
Waning Crescent, 24% visible
METAR EGNS 252150Z 25013KT 220V280 9999 SCT025 13/07 Q1015

10-Day Weather Forecast

×

Almanac

Astronomy

Sep. 25, 2016 Rise Set
Actual Time
Civil Twilight
Nautical Twilight
Astronomical Twilight
Moon
Length of Visible Light
Length of Day
Tomorrow will be .
, % of the Moon is Illuminated

Today's Extremes

Country Highs Country Lows

Community

WunderPhotos

Upload Photos

1,941,752 photos uploaded!

WunderBlog® & News

Nearby

Air Quality

  Air Quality AQ Index Pollutant
Not available.

Snow Depth

Station Depth Elevation

Earthquake Activity

City Distance Mag. Time & Date
Minimum magnitude displayed is 2.5.

Coastal Water Temperatures

Place Temperature

Stations

Nearby Weather Stations

Station Location Temp. Windchill Dew Point Humidity Wind Precip. Elev Updated Type